Time;durP1;ratioP1;P1;durP2;ratioP2;P2;SDS_P1;SDS_P2;PMS_P1;PMS_P2;Temp;Humidity;BMP_temperature;BMP_pressure;BME280_temperature;BME280_humidity;BME280_pressure;Samples;Min_cycle;Max_cycle;Signal;HPM_P1;HPM_P2
2022/02/07 00:03:02;;;;;;;18.85;7.22;;;10.90;51.50;;;;;;5037142;28;20047;-84
2022/02/07 00:05:31;;;;;;;20.35;10.00;;;10.80;51.40;;;;;;5038450;28;20109;-85
2022/02/07 00:08:10;;;;;;;20.95;9.55;;;10.80;51.40;;;;;;5051344;28;20555;-84
2022/02/07 00:10:42;;;;;;;39.88;16.67;;;10.80;51.30;;;;;;5035774;28;20056;-81
2022/02/07 00:13:11;;;;;;;53.20;21.25;;;10.80;51.40;;;;;;5035162;28;20102;-81
2022/02/07 00:15:58;;;;;;;11.93;4.95;;;10.70;51.30;;;;;;5051217;28;20037;-81
2022/02/07 00:18:25;;;;;;;6.82;3.15;;;10.80;51.60;;;;;;5051559;28;20124;-84
2022/02/07 00:20:51;;;;;;;9.15;4.10;;;10.80;51.60;;;;;;5051440;28;20442;-84
2022/02/07 00:23:19;;;;;;;8.90;3.92;;;10.80;51.00;;;;;;5034644;28;20120;-81
2022/02/07 00:25:51;;;;;;;7.28;3.28;;;10.80;51.60;;;;;;5051350;28;20037;-84
2022/02/07 00:28:17;;;;;;;72.97;24.95;;;10.70;51.80;;;;;;5033685;28;20033;-85
2022/02/07 00:30:43;;;;;;;35.65;14.75;;;10.80;51.80;;;;;;5051025;28;20059;-81
2022/02/07 00:33:20;;;;;;;23.88;9.32;;;10.80;51.60;;;;;;5036409;28;20111;-85
2022/02/07 00:35:47;;;;;;;16.23;7.25;;;10.80;51.60;;;;;;5050116;28;20320;-81
2022/02/07 00:38:18;;;;;;;35.70;15.30;;;10.80;51.80;;;;;;5034876;28;20033;-82
2022/02/07 00:40:57;;;;;;;13.25;5.05;;;10.70;52.00;;;;;;5051044;28;20072;-81
2022/02/07 00:49:13;;;;;;;6.50;2.58;;;10.70;52.40;;;;;;5036677;28;20064;-84
2022/02/07 00:51:39;;;;;;;5.82;2.30;;;10.60;52.20;;;;;;5027602;28;20037;-84
2022/02/07 00:54:17;;;;;;;6.30;2.22;;;10.70;52.40;;;;;;5055704;28;20060;-80
2022/02/07 00:56:43;;;;;;;6.00;1.85;;;10.70;52.40;;;;;;5038090;28;20033;-81
2022/02/07 00:59:16;;;;;;;5.80;2.40;;;10.70;52.30;;;;;;5038851;28;20063;-85
2022/02/07 01:01:43;;;;;;;6.50;2.55;;;10.80;52.30;;;;;;5037542;28;20119;-80
2022/02/07 01:04:18;;;;;;;6.30;3.17;;;10.80;52.10;;;;;;5054303;28;20032;-85
2022/02/07 01:06:48;;;;;;;5.28;1.67;;;10.90;51.80;;;;;;5053224;28;20120;-80
2022/02/07 01:09:36;;;;;;;6.15;2.05;;;10.90;51.50;;;;;;5039487;28;20166;-84
2022/02/07 01:12:13;;;;;;;6.53;2.08;;;11.00;51.20;;;;;;5038942;28;20037;-81
2022/02/07 01:14:51;;;;;;;;;;;11.10;50.70;;;;;;5039548;28;20433;-84
2022/02/07 01:51:11;;;;;;;5.20;1.80;;;10.90;51.30;;;;;;5052782;28;20215;-80
2022/02/07 01:54:10;;;;;;;9.20;2.92;;;10.90;51.10;;;;;;5035792;28;20493;-81
2022/02/07 01:56:37;;;;;;;5.30;2.10;;;10.90;50.60;;;;;;5033148;28;20092;-84
2022/02/07 01:59:07;;;;;;;5.72;1.95;;;10.90;50.90;;;;;;5033543;28;20056;-80
2022/02/07 02:01:36;;;;;;;6.03;2.10;;;11.00;50.90;;;;;;5033653;28;20136;-81
2022/02/07 02:04:11;;;;;;;8.50;2.47;;;11.00;50.80;;;;;;5033904;28;20033;-84
2022/02/07 02:06:42;;;;;;;7.85;2.25;;;11.00;50.50;;;;;;5036317;28;20394;-81
2022/02/07 02:09:08;;;;;;;5.22;2.10;;;11.10;50.70;;;;;;5020740;28;20044;-80
2022/02/07 02:11:37;;;;;;;;;;;11.00;50.80;;;;;;5053730;28;20401;-84
2022/02/07 02:17:04;;;;;;;5.65;2.30;;;11.10;50.20;;;;;;5052983;28;20108;-81
2022/02/07 02:22:47;;;;;;;6.93;1.95;;;11.10;50.80;;;;;;5038417;28;20048;-84
2022/02/07 02:37:11;;;;;;;6.85;2.80;;;11.10;51.10;;;;;;5052067;28;20393;-81
2022/02/07 02:45:32;;;;;;;6.90;2.75;;;11.00;51.20;;;;;;5053671;28;20663;-81
2022/02/07 02:48:03;;;;;;;4.18;1.88;;;11.00;51.40;;;;;;5053031;28;20029;-84
2022/02/07 02:50:40;;;;;;;8.02;2.38;;;10.90;51.30;;;;;;5036524;28;20518;-84
2022/02/07 02:53:11;;;;;;;;;;;10.90;51.40;;;;;;5052731;28;20395;-81
2022/02/07 02:55:41;;;;;;;8.40;2.67;;;10.80;51.30;;;;;;5051814;28;19920;-85
2022/02/07 02:58:13;;;;;;;7.70;2.38;;;10.80;51.50;;;;;;5052506;28;20428;-84
2022/02/07 03:00:58;;;;;;;6.70;1.88;;;10.80;51.30;;;;;;5052072;28;20041;-81
2022/02/07 03:03:24;;;;;;;8.48;1.95;;;10.80;50.60;;;;;;5019784;28;20104;-84
2022/02/07 03:06:10;;;;;;;6.53;2.15;;;10.80;51.10;;;;;;5051586;28;20045;-85
2022/02/07 03:08:38;;;;;;;5.32;1.77;;;10.90;50.90;;;;;;5051223;28;20037;-84
2022/02/07 03:11:13;;;;;;;4.22;1.60;;;10.90;50.90;;;;;;5051903;28;20390;-84
2022/02/07 03:13:49;;;;;;;5.60;2.10;;;10.90;50.70;;;;;;5021397;28;20539;-80
2022/02/07 03:16:38;;;;;;;4.95;2.13;;;11.00;50.40;;;;;;5035612;28;20422;-80
2022/02/07 03:19:24;;;;;;;3.80;1.50;;;11.00;50.20;;;;;;5038083;28;20033;-83
2022/02/07 03:21:54;;;;;;;3.92;1.35;;;11.10;50.40;;;;;;5051884;28;20211;-85
2022/02/07 03:24:20;;;;;;;4.57;1.75;;;11.10;50.20;;;;;;5035895;28;20109;-84
2022/02/07 03:26:46;;;;;;;4.05;1.50;;;11.10;50.00;;;;;;5051597;28;20037;-80
2022/02/07 03:29:15;;;;;;;3.08;1.35;;;11.20;50.00;;;;;;5035769;28;20048;-85
2022/02/07 03:31:43;;;;;;;;;;;11.20;49.90;;;;;;5052379;28;20033;-83
2022/02/07 03:34:11;;;;;;;5.60;1.83;;;11.20;49.70;;;;;;5051881;28;19920;-81
2022/02/07 03:36:38;;;;;;;6.70;1.60;;;11.20;49.80;;;;;;5051493;28;20028;-81
2022/02/07 03:39:06;;;;;;;5.00;1.42;;;11.20;49.60;;;;;;5052231;28;20049;-83
2022/02/07 03:41:40;;;;;;;6.45;1.92;;;11.20;49.70;;;;;;5051496;28;20033;-80
2022/02/07 03:44:12;;;;;;;6.63;1.88;;;11.20;49.90;;;;;;5035384;28;20094;-80
2022/02/07 03:46:38;;;;;;;4.22;1.60;;;11.20;49.90;;;;;;5051707;28;20039;-84
2022/02/07 03:49:04;;;;;;;6.05;1.98;;;11.20;50.20;;;;;;5051945;28;20417;-85
2022/02/07 03:51:41;;;;;;;;;;;11.10;49.70;;;;;;5035560;28;20037;-81
2022/02/07 03:54:09;;;;;;;5.50;1.85;;;11.20;50.30;;;;;;5034973;28;20004;-81
2022/02/07 03:56:41;;;;;;;4.43;1.45;;;11.10;50.40;;;;;;5034978;28;20044;-81
2022/02/07 03:59:08;;;;;;;4.28;1.70;;;11.10;50.60;;;;;;5035138;28;20044;-85
2022/02/07 04:01:36;;;;;;;2.80;1.08;;;11.10;50.90;;;;;;5051360;28;20052;-85
2022/02/07 04:04:03;;;;;;;5.68;1.15;;;11.10;51.10;;;;;;5051843;28;20037;-85
2022/02/07 04:06:30;;;;;;;4.43;1.48;;;11.10;50.50;;;;;;5034894;28;20056;-85
2022/02/07 04:09:01;;;;;;;5.85;1.63;;;11.10;50.60;;;;;;5050509;28;20034;-81
2022/02/07 04:11:41;;;;;;;5.05;1.83;;;11.20;51.00;;;;;;5050973;28;20133;-80
2022/02/07 04:14:10;;;;;;;3.65;1.58;;;11.20;50.70;;;;;;5037174;28;20084;-81
2022/02/07 04:16:39;;;;;;;7.32;1.77;;;11.30;51.00;;;;;;5034900;28;20540;-80
2022/02/07 04:19:15;;;;;;;5.32;1.45;;;11.30;50.90;;;;;;5055335;28;20500;-80
2022/02/07 04:21:45;;;;;;;5.73;1.73;;;11.30;50.80;;;;;;5055262;28;20061;-81
2022/02/07 04:24:12;;;;;;;3.03;1.20;;;11.30;50.80;;;;;;5054465;28;20036;-81
2022/02/07 04:26:45;;;;;;;3.92;1.50;;;11.20;50.80;;;;;;5039363;28;20037;-81
2022/02/07 04:29:14;;;;;;;4.35;1.45;;;11.30;51.10;;;;;;5055116;28;20116;-80
2022/02/07 04:31:40;;;;;;;4.10;1.67;;;11.30;51.30;;;;;;5054469;28;20090;-82
2022/02/07 04:34:18;;;;;;;7.78;1.83;;;11.20;51.00;;;;;;5056206;28;20043;-80
2022/02/07 04:36:56;;;;;;;3.17;1.13;;;11.30;51.20;;;;;;5054837;28;20386;-80
2022/02/07 04:39:23;;;;;;;3.78;1.63;;;11.30;51.00;;;;;;5038690;28;20051;-81
2022/02/07 04:41:54;;;;;;;4.93;1.77;;;11.20;50.80;;;;;;5037613;28;20433;-80
2022/02/07 04:44:27;;;;;;;5.40;1.88;;;11.30;50.90;;;;;;5038594;28;20041;-85
2022/02/07 04:55:40;;;;;;;8.57;1.67;;;11.20;50.80;;;;;;5054398;28;20114;-84
2022/02/07 04:58:14;;;;;;;4.35;1.60;;;11.20;50.80;;;;;;5040331;28;20470;-80
2022/02/07 05:03:20;;;;;;;2.63;1.10;;;11.30;50.70;;;;;;5054734;28;20029;-81
2022/02/07 05:13:47;;;;;;;3.30;1.30;;;11.50;49.40;;;;;;5054493;28;20473;-80
2022/02/07 05:16:33;;;;;;;4.03;1.42;;;11.50;49.00;;;;;;5039544;28;20122;-79
2022/02/07 05:19:05;;;;;;;2.95;1.17;;;11.60;48.90;;;;;;5037356;28;20092;-80
2022/02/07 05:21:31;;;;;;;4.95;1.58;;;11.60;48.90;;;;;;5037439;28;20033;-80
2022/02/07 05:24:12;;;;;;;5.97;1.70;;;11.60;48.50;;;;;;5052946;28;20107;-83
2022/02/07 05:26:38;;;;;;;4.38;1.15;;;11.60;49.10;;;;;;5037379;28;20043;-80
2022/02/07 05:29:06;;;;;;;7.30;1.50;;;11.60;48.40;;;;;;5052560;28;20039;-82
2022/02/07 05:31:35;;;;;;;4.60;1.20;;;11.70;48.90;;;;;;5053223;28;20033;-80
2022/02/07 05:34:02;;;;;;;5.20;1.63;;;11.70;48.80;;;;;;5054010;28;20059;-80
2022/02/07 05:36:28;;;;;;;7.53;1.60;;;11.70;49.70;;;;;;5036439;28;20472;-82
2022/02/07 05:39:05;;;;;;;3.03;1.35;;;11.70;49.10;;;;;;5052785;28;20041;-83
2022/02/07 05:41:31;;;;;;;;;;;11.70;49.20;;;;;;5037590;28;20108;-81
2022/02/07 05:43:57;;;;;;;4.35;1.60;;;11.70;49.20;;;;;;5054691;28;19920;-81
2022/02/07 05:46:39;;;;;;;5.65;1.67;;;11.70;49.50;;;;;;5054594;28;20027;-83
2022/02/07 05:49:24;;;;;;;5.07;1.40;;;11.70;49.80;;;;;;5053486;28;20460;-80
2022/02/07 05:51:52;;;;;;;3.58;1.70;;;11.60;50.50;;;;;;5052994;28;20029;-80
2022/02/07 05:54:21;;;;;;;7.38;1.85;;;11.60;50.80;;;;;;5036035;28;20110;-80
2022/02/07 05:56:47;;;;;;;7.43;2.35;;;11.60;51.20;;;;;;5052853;28;20100;-81
2022/02/07 05:59:14;;;;;;;7.05;2.65;;;11.60;51.50;;;;;;5055102;28;20449;-83
2022/02/07 06:01:40;;;;;;;10.02;3.00;;;11.60;52.10;;;;;;5054349;28;20033;-81
2022/02/07 06:04:07;;;;;;;9.90;3.45;;;11.50;52.60;;;;;;5036999;28;20033;-84
2022/02/07 06:06:34;;;;;;;12.32;2.67;;;11.50;53.20;;;;;;5052899;28;20459;-81
2022/02/07 06:09:00;;;;;;;7.85;2.67;;;11.50;54.40;;;;;;5052445;28;20072;-84
2022/02/07 06:11:29;;;;;;;22.98;12.48;;;11.40;53.70;;;;;;5053205;28;20029;-84
2022/02/07 06:13:58;;;;;;;19.80;10.00;;;11.50;54.10;;;;;;5054421;28;20037;-81
2022/02/07 06:16:32;;;;;;;16.45;6.85;;;11.50;54.30;;;;;;5052902;28;20115;-80
2022/02/07 06:19:08;;;;;;;41.55;24.70;;;11.40;54.80;;;;;;5053181;28;20029;-84
2022/02/07 06:21:35;;;;;;;17.08;11.25;;;11.40;54.80;;;;;;5036016;28;20520;-80
2022/02/07 06:24:04;;;;;;;26.42;14.65;;;11.30;55.40;;;;;;5053216;28;20037;-83
2022/02/07 06:26:40;;;;;;;9.00;3.28;;;11.30;55.80;;;;;;5035948;28;20104;-84
2022/02/07 06:29:07;;;;;;;8.88;3.10;;;11.10;56.40;;;;;;5052733;28;20048;-82
2022/02/07 06:31:33;;;;;;;6.20;2.65;;;10.90;57.10;;;;;;5035569;28;20060;-83
2022/02/07 06:34:00;;;;;;;5.95;2.20;;;10.80;57.20;;;;;;5052549;28;20116;-84
2022/02/07 06:36:30;;;;;;;5.90;2.00;;;10.70;57.40;;;;;;5051930;28;20032;-82
2022/02/07 06:39:00;;;;;;;6.05;2.03;;;10.60;57.60;;;;;;5051660;28;20425;-79
2022/02/07 06:41:32;;;;;;;10.73;5.35;;;10.50;57.20;;;;;;5051523;28;20037;-83
2022/02/07 06:44:05;;;;;;;5.07;2.30;;;10.40;58.10;;;;;;5051641;28;20139;-79
2022/02/07 06:46:41;;;;;;;2.58;1.08;;;10.30;58.40;;;;;;5036608;28;20386;-83
2022/02/07 06:49:07;;;;;;;4.00;1.15;;;10.00;58.30;;;;;;5035706;28;20033;-79
2022/02/07 06:51:33;;;;;;;5.68;1.30;;;9.80;58.30;;;;;;5051810;28;20379;-82
2022/02/07 06:54:01;;;;;;;3.40;1.08;;;9.80;57.90;;;;;;5051216;28;20053;-80
2022/02/07 06:56:28;;;;;;;4.95;1.40;;;9.70;57.60;;;;;;5051479;28;20037;-80
2022/02/07 06:59:03;;;;;;;3.65;0.70;;;9.60;57.30;;;;;;5035193;28;20094;-80
2022/02/07 07:01:42;;;;;;;2.97;1.10;;;9.60;56.70;;;;;;5050175;28;20487;-83
2022/02/07 07:04:09;;;;;;;1.45;0.57;;;9.50;57.10;;;;;;5019308;28;20079;-82
2022/02/07 07:06:35;;;;;;;5.18;2.30;;;9.50;56.90;;;;;;5035607;28;20044;-83
2022/02/07 07:12:01;;;;;;;9.15;4.28;;;9.60;56.50;;;;;;5052096;28;20090;-79
2022/02/07 07:17:16;;;;;;;51.85;26.70;;;9.60;56.30;;;;;;5051988;28;20098;-83
2022/02/07 07:19:47;;;;;;;33.75;17.02;;;9.50;56.60;;;;;;5051663;28;20491;-82
2022/02/07 07:22:14;;;;;;;14.40;4.35;;;9.50;56.60;;;;;;5051632;28;20033;-79
2022/02/07 07:24:45;;;;;;;63.83;24.02;;;9.40;56.20;;;;;;5034208;28;20041;-83
2022/02/07 07:27:22;;;;;;;;;;;;;;;;;;;;;
2022/02/07 07:29:49;;;;;;;35.78;17.75;;;9.40;56.90;;;;;;5051864;28;20052;-83
2022/02/07 07:32:20;;;;;;;22.95;11.23;;;9.40;56.90;;;;;;5051478;28;20100;-80
2022/02/07 07:35:03;;;;;;;8.63;5.75;;;9.40;57.30;;;;;;5035808;28;20090;-79
2022/02/07 07:37:30;;;;;;;13.65;5.82;;;9.20;58.00;;;;;;5035045;28;20528;-84
2022/02/07 07:40:00;;;;;;;12.02;6.55;;;9.20;58.00;;;;;;5052494;28;20330;-80
2022/02/07 07:42:27;;;;;;;11.57;5.18;;;9.20;57.90;;;;;;5050854;28;20064;-80
2022/02/07 07:45:01;;;;;;;9.18;3.90;;;9.20;57.60;;;;;;5035068;28;20037;-80
2022/02/07 07:47:30;;;;;;;9.77;3.17;;;9.20;57.30;;;;;;5051054;28;20032;-79
2022/02/07 07:50:17;;;;;;;9.98;3.03;;;9.30;57.00;;;;;;5053135;28;20037;-83
2022/02/07 07:53:40;;;;;;;7.18;2.25;;;9.30;56.10;;;;;;5054762;28;20029;-79
2022/02/07 08:01:47;;;;;;;3.22;1.10;;;9.40;54.40;;;;;;5055132;28;20082;-80
2022/02/07 08:04:16;;;;;;;8.23;3.60;;;9.40;54.90;;;;;;5055450;28;20037;-80
2022/02/07 08:06:53;;;;;;;9.43;5.28;;;9.40;54.80;;;;;;5038622;28;20032;-79
2022/02/07 08:09:36;;;;;;;13.32;7.38;;;9.40;54.30;;;;;;5055819;28;20389;-80
2022/02/07 08:12:04;;;;;;;5.22;2.20;;;9.40;54.80;;;;;;5054979;28;20037;-79
2022/02/07 08:14:35;;;;;;;7.65;2.50;;;9.40;54.90;;;;;;5056584;28;20068;-79
2022/02/07 08:17:05;;;;;;;5.70;2.20;;;9.40;54.70;;;;;;5038716;28;20112;-83
2022/02/07 08:19:33;;;;;;;6.72;3.20;;;9.40;54.40;;;;;;5038824;28;20029;-81
2022/02/07 08:22:05;;;;;;;8.30;4.25;;;9.40;53.80;;;;;;5056133;28;20112;-83
2022/02/07 08:24:55;;;;;;;7.60;2.50;;;9.50;54.20;;;;;;5037859;28;20041;-83
2022/02/07 08:27:27;;;;;;;6.25;2.60;;;9.50;54.50;;;;;;5054315;28;20033;-83
2022/02/07 08:30:15;;;;;;;14.50;2.47;;;9.50;54.60;;;;;;5038002;28;20136;-80
2022/02/07 08:32:43;;;;;;;13.30;5.90;;;9.50;54.60;;;;;;5055900;28;20028;-80
2022/02/07 08:35:12;;;;;;;8.30;2.92;;;9.50;54.40;;;;;;5054537;28;20382;-79
2022/02/07 08:37:38;;;;;;;9.13;3.88;;;9.50;52.80;;;;;;5054635;28;20386;-81
2022/02/07 08:40:05;;;;;;;9.45;4.10;;;9.60;52.70;;;;;;5053892;28;20040;-80
2022/02/07 08:42:40;;;;;;;15.15;3.42;;;9.50;51.80;;;;;;5054312;28;20029;-83
2022/02/07 08:45:07;;;;;;;8.02;3.50;;;9.60;51.50;;;;;;5055386;28;20037;-84
2022/02/07 08:47:45;;;;;;;7.05;1.95;;;9.60;49.10;;;;;;5037755;28;20037;-82
2022/02/07 08:50:12;;;;;;;7.65;1.40;;;9.70;49.70;;;;;;5053426;28;20126;-79
2022/02/07 08:52:45;;;;;;;3.88;1.38;;;9.60;49.20;;;;;;5037648;28;20029;-83
2022/02/07 08:55:16;;;;;;;3.33;1.23;;;9.70;48.20;;;;;;5036930;28;20462;-82
2022/02/07 08:57:46;;;;;;;5.15;1.83;;;9.70;48.20;;;;;;5054493;28;20125;-83
2022/02/07 09:00:41;;;;;;;7.85;2.10;;;9.80;48.30;;;;;;5055347;28;20076;-82
2022/02/07 09:03:20;;;;;;;4.00;1.02;;;9.80;47.70;;;;;;5054432;28;20033;-80
2022/02/07 09:06:05;;;;;;;8.38;1.95;;;9.90;47.20;;;;;;5053973;28;20048;-80
2022/02/07 09:11:41;;;;;;;;;;;;;;;;;;;;;
2022/02/07 09:14:19;;;;;;;19.27;3.08;;;9.90;47.20;;;;;;5054457;28;20059;-83
2022/02/07 09:16:46;;;;;;;6.63;1.90;;;10.00;48.00;;;;;;5053938;28;20039;-79
2022/02/07 09:19:14;;;;;;;6.43;2.38;;;10.00;48.10;;;;;;5037538;28;20155;-83
2022/02/07 09:21:40;;;;;;;9.68;3.33;;;10.00;48.80;;;;;;5037044;28;20055;-80
2022/02/07 09:24:28;;;;;;;9.70;3.13;;;10.00;50.50;;;;;;5053999;28;20075;-83
2022/02/07 09:26:56;;;;;;;;;;;9.90;51.60;;;;;;5053515;28;20032;-82
2022/02/07 09:29:22;;;;;;;8.43;3.05;;;9.90;51.30;;;;;;5054296;28;19921;-83
2022/02/07 09:31:52;;;;;;;7.97;3.95;;;9.90;51.70;;;;;;5037089;28;20075;-82
2022/02/07 09:34:23;;;;;;;18.98;6.45;;;9.90;51.90;;;;;;5037314;28;20037;-83
2022/02/07 09:36:53;;;;;;;3.90;1.63;;;10.00;51.70;;;;;;5053156;28;20033;-83
2022/02/07 09:39:23;;;;;;;8.27;2.78;;;10.10;50.60;;;;;;5037797;28;20037;-79
2022/02/07 09:41:54;;;;;;;5.97;2.30;;;10.10;49.60;;;;;;5036296;28;20033;-82
2022/02/07 09:44:22;;;;;;;8.50;3.67;;;10.20;49.70;;;;;;5037867;28;20473;-81
2022/02/07 09:46:48;;;;;;;24.10;9.43;;;10.30;49.10;;;;;;5036526;28;20053;-80
2022/02/07 09:49:22;;;;;;;8.15;2.63;;;10.40;48.00;;;;;;5054838;28;20033;-80
2022/02/07 09:51:49;;;;;;;6.32;2.65;;;10.40;47.70;;;;;;5036689;28;20029;-82
2022/02/07 09:54:36;;;;;;;7.60;1.38;;;10.40;49.70;;;;;;5053208;28;20048;-82
2022/02/07 09:57:11;;;;;;;6.13;1.27;;;10.40;48.40;;;;;;5053320;28;20033;-79
2022/02/07 09:59:43;;;;;;;6.10;1.58;;;10.50;46.90;;;;;;5020299;28;20456;-82
2022/02/07 10:02:39;;;;;;;5.28;1.40;;;10.40;48.00;;;;;;5054181;28;20472;-82
2022/02/07 10:06:11;;;;;;;5.05;2.05;;;10.50;47.30;;;;;;5038830;28;20071;-80
2022/02/07 10:08:55;;;;;;;5.68;1.80;;;10.60;47.10;;;;;;5053305;28;20068;-83
2022/02/07 10:11:52;;;;;;;6.05;1.70;;;10.80;44.70;;;;;;5052417;28;20056;-79
2022/02/07 10:17:32;;;;;;;4.38;1.60;;;10.80;42.00;;;;;;5052836;28;20127;-83
2022/02/07 10:35:22;;;;;;;6.63;2.92;;;11.10;34.90;;;;;;5052858;28;20040;-82
2022/02/07 10:43:14;;;;;;;12.98;6.82;;;11.70;33.80;;;;;;5033928;28;20037;-79
2022/02/07 10:46:19;;;;;;;18.85;8.43;;;11.90;34.00;;;;;;5037324;28;20037;-81
2022/02/07 10:49:42;;;;;;;34.58;16.42;;;12.00;33.00;;;;;;5052066;28;20045;-82
2022/02/07 10:52:08;;;;;;;13.80;5.03;;;12.30;33.90;;;;;;5051866;28;20040;-81
2022/02/07 10:54:39;;;;;;;13.52;5.07;;;12.70;33.00;;;;;;5051986;28;20556;-80
2022/02/07 10:57:07;;;;;;;0.77;0.40;;;13.20;31.30;;;;;;5051023;28;20128;-79
2022/02/07 10:59:34;;;;;;;21.27;8.90;;;14.40;29.10;;;;;;5035636;28;20041;-80
2022/02/07 11:02:38;;;;;;;2.67;0.90;;;15.40;27.90;;;;;;5051789;28;20029;-80
2022/02/07 11:04:59;;;;;;;3.65;1.15;;;15.90;28.00;;;;;;5052482;28;20144;-83
2022/02/07 11:07:30;;;;;;;2.80;0.82;;;16.30;27.10;;;;;;5052584;28;20037;-83
2022/02/07 11:10:07;;;;;;;3.03;1.10;;;16.80;24.00;;;;;;5035709;28;20056;-79
2022/02/07 11:12:55;;;;;;;5.80;2.15;;;17.30;24.60;;;;;;5036274;28;20473;-84
2022/02/07 11:15:33;;;;;;;5.97;2.65;;;18.50;22.90;;;;;;5051680;28;20124;-80
2022/02/07 11:18:25;;;;;;;10.82;5.63;;;17.60;23.40;;;;;;5036654;28;20060;-80
2022/02/07 11:21:36;;;;;;;11.15;5.60;;;17.00;23.80;;;;;;5051122;28;20090;-82
2022/02/07 11:24:56;;;;;;;8.52;3.70;;;16.90;24.40;;;;;;5037864;28;20048;-80
2022/02/07 11:27:48;;;;;;;2.85;1.20;;;19.00;23.40;;;;;;5049544;28;20029;-81
2022/02/07 11:30:17;;;;;;;6.57;1.92;;;19.30;22.30;;;;;;5051627;28;20402;-80
2022/02/07 11:32:44;;;;;;;5.72;2.38;;;18.70;22.50;;;;;;5035522;28;20040;-84
2022/02/07 11:35:49;;;;;;;3.67;1.02;;;18.20;23.70;;;;;;5051224;28;20033;-80
2022/02/07 11:38:18;;;;;;;5.35;1.50;;;18.30;22.70;;;;;;5051579;28;20033;-83
2022/02/07 11:41:05;;;;;;;4.30;1.67;;;20.00;21.30;;;;;;5052685;28;20424;-83
2022/02/07 11:43:34;;;;;;;5.93;1.27;;;19.50;21.40;;;;;;5031580;28;20026;-80
2022/02/07 11:46:21;;;;;;;8.38;1.50;;;18.80;19.60;;;;;;5034664;28;20041;-78
2022/02/07 11:48:50;;;;;;;3.58;1.48;;;17.60;21.30;;;;;;5034810;28;20040;-83
2022/02/07 11:51:40;;;;;;;4.13;0.95;;;17.40;21.60;;;;;;5050913;28;20029;-80
2022/02/07 11:54:10;;;;;;;5.75;3.20;;;17.50;21.20;;;;;;5052529;28;20071;-80
2022/02/07 11:57:06;;;;;;;4.47;1.30;;;17.40;21.50;;;;;;5050426;28;20119;-83
2022/02/07 11:59:39;;;;;;;1.83;0.60;;;17.50;20.90;;;;;;5049876;28;20056;-82
2022/02/07 12:02:14;;;;;;;4.95;1.63;;;18.10;19.30;;;;;;5051155;28;20037;-85
2022/02/07 12:05:23;;;;;;;5.50;2.15;;;18.40;19.60;;;;;;5035724;28;20550;-83
2022/02/07 12:08:31;;;;;;;5.05;1.67;;;18.40;18.50;;;;;;5051324;28;20044;-80
2022/02/07 12:11:17;;;;;;;4.20;1.55;;;17.40;19.80;;;;;;5035196;28;20452;-80
2022/02/07 12:13:44;;;;;;;3.95;1.73;;;16.70;20.50;;;;;;5031667;28;20611;-82
2022/02/07 12:16:19;;;;;;;5.63;2.15;;;16.50;21.50;;;;;;5031157;28;20039;-80
2022/02/07 12:19:41;;;;;;;1.73;0.70;;;16.30;21.60;;;;;;5015162;28;20117;-80
2022/02/07 12:22:30;;;;;;;8.57;2.80;;;16.20;21.20;;;;;;5030801;28;20406;-84
2022/02/07 12:25:08;;;;;;;5.60;1.92;;;16.20;21.00;;;;;;5015068;28;20095;-82
2022/02/07 12:27:45;;;;;;;4.70;1.88;;;16.30;21.90;;;;;;5041480;28;20052;-82
2022/02/07 12:32:38;;;;;;;5.55;2.58;;;18.20;20.30;;;;;;5051092;28;20138;-79
2022/02/07 12:35:14;;;;;;;;;;;18.50;20.00;;;;;;5051359;28;20044;-83
2022/02/07 12:37:41;;;;;;;4.72;2.40;;;18.70;20.30;;;;;;5020464;28;20361;-80
2022/02/07 12:40:10;;;;;;;0.32;0.20;;;19.30;19.20;;;;;;5037831;28;20048;-81
2022/02/07 12:42:47;;;;;;;3.78;1.20;;;20.10;17.20;;;;;;5036968;28;20037;-80
2022/02/07 12:45:23;;;;;;;6.25;0.52;;;20.80;17.30;;;;;;5054035;28;20389;-81
2022/02/07 12:48:21;;;;;;;3.92;1.70;;;20.70;17.10;;;;;;5055149;28;20033;-82
2022/02/07 12:50:54;;;;;;;9.75;0.82;;;20.50;17.40;;;;;;5039266;28;20227;-80
2022/02/07 12:53:24;;;;;;;1.98;0.60;;;21.40;15.60;;;;;;5054193;28;20445;-80
2022/02/07 12:55:57;;;;;;;6.15;2.30;;;22.90;14.90;;;;;;5053992;28;20048;-82
2022/02/07 12:58:36;;;;;;;6.10;1.08;;;23.80;14.50;;;;;;5036720;28;20039;-79
2022/02/07 13:01:27;;;;;;;1.15;0.60;;;25.70;13.00;;;;;;5054163;28;20051;-80
2022/02/07 13:04:14;;;;;;;2.00;0.63;;;24.80;12.40;;;;;;5037287;28;20123;-80
2022/02/07 13:06:49;;;;;;;1.70;1.00;;;24.40;13.80;;;;;;5053730;28;20022;-80
2022/02/07 13:09:27;;;;;;;4.03;1.50;;;26.70;12.40;;;;;;5054289;28;20041;-82
2022/02/07 13:14:56;;;;;;;3.90;1.35;;;30.70;9.00;;;;;;5053891;28;20033;-80
2022/02/07 13:17:51;;;;;;;7.50;1.55;;;31.80;8.70;;;;;;5036954;28;20061;-80
2022/02/07 13:20:35;;;;;;;1.50;0.80;;;32.70;8.30;;;;;;5055037;28;20512;-81
2022/02/07 13:23:19;;;;;;;6.43;2.67;;;33.30;7.60;;;;;;5055151;28;20055;-80
2022/02/07 13:26:09;;;;;;;1.73;0.68;;;33.60;7.90;;;;;;5036915;28;20041;-80
2022/02/07 13:28:53;;;;;;;8.13;1.50;;;33.10;7.90;;;;;;5036638;28;20132;-80
2022/02/07 13:31:20;;;;;;;3.83;1.60;;;33.80;7.70;;;;;;5053162;28;20044;-83
2022/02/07 13:33:52;;;;;;;0.60;0.40;;;34.00;6.80;;;;;;5053783;28;20099;-81
2022/02/07 13:36:49;;;;;;;1.13;0.50;;;34.20;6.10;;;;;;5052583;28;20094;-79
2022/02/07 13:39:26;;;;;;;6.10;0.80;;;34.00;6.80;;;;;;5053667;28;20040;-80
2022/02/07 13:42:15;;;;;;;9.00;4.00;;;34.20;6.50;;;;;;5035875;28;20127;-82
2022/02/07 13:44:44;;;;;;;2.17;1.08;;;35.20;6.80;;;;;;5044018;28;20037;-80
2022/02/07 13:47:17;;;;;;;4.70;2.17;;;35.20;6.30;;;;;;5036270;28;20121;-80
2022/02/07 13:50:23;;;;;;;7.78;2.33;;;35.60;6.60;;;;;;5035543;28;20421;-79
2022/02/07 13:52:55;;;;;;;4.65;2.30;;;34.00;6.20;;;;;;5053067;28;20033;-81
2022/02/07 13:55:56;;;;;;;5.60;2.30;;;29.50;7.90;;;;;;5052579;28;20103;-80
2022/02/07 13:58:42;;;;;;;8.88;5.47;;;26.20;10.40;;;;;;5052529;28;20043;-80
2022/02/07 14:01:31;;;;;;;5.70;2.28;;;25.00;11.40;;;;;;5036237;28;20072;-82
2022/02/07 14:04:01;;;;;;;7.82;3.40;;;27.30;10.00;;;;;;5052843;28;20033;-82
2022/02/07 14:06:30;;;;;;;1.67;0.70;;;30.60;8.90;;;;;;5036420;28;20031;-79
2022/02/07 14:09:13;;;;;;;2.20;0.90;;;32.50;7.00;;;;;;5052858;28;20041;-82
2022/02/07 14:11:42;;;;;;;4.78;2.33;;;33.20;6.60;;;;;;5052598;28;20029;-81
2022/02/07 14:14:08;;;;;;;6.05;0.90;;;33.20;6.60;;;;;;5052030;28;20390;-81
2022/02/07 14:16:45;;;;;;;4.65;1.30;;;33.60;6.50;;;;;;5052359;28;20067;-83
2022/02/07 14:19:12;;;;;;;1.50;0.75;;;33.10;6.40;;;;;;5036439;28;20490;-80
2022/02/07 14:21:38;;;;;;;3.28;1.20;;;30.00;7.70;;;;;;5035659;28;20374;-80
2022/02/07 14:24:04;;;;;;;2.10;0.90;;;30.90;7.70;;;;;;5052531;28;20044;-81
2022/02/07 14:26:37;;;;;;;2.05;0.77;;;31.90;7.70;;;;;;5052370;28;20021;-82
2022/02/07 14:29:20;;;;;;;4.45;1.30;;;32.50;7.10;;;;;;5051511;28;20041;-80
2022/02/07 14:31:47;;;;;;;3.63;1.50;;;31.90;7.10;;;;;;5052596;28;20071;-80
2022/02/07 14:34:13;;;;;;;6.93;2.65;;;32.00;7.40;;;;;;5052232;28;20551;-80
2022/02/07 14:37:02;;;;;;;6.15;2.00;;;32.50;7.00;;;;;;5051896;28;20031;-80
2022/02/07 14:39:29;;;;;;;5.93;2.55;;;32.20;7.40;;;;;;5052168;28;20482;-81
2022/02/07 14:44:57;;;;;;;8.23;3.38;;;29.90;7.60;;;;;;4981394;28;20043;-82
2022/02/07 14:50:25;;;;;;;6.63;1.98;;;31.00;8.20;;;;;;4971813;28;20518;-80
2022/02/07 14:52:53;;;;;;;4.25;1.70;;;31.30;8.10;;;;;;4940314;28;20078;-82
2022/02/07 14:55:32;;;;;;;3.30;1.52;;;31.00;7.50;;;;;;4955631;28;20058;-81
2022/02/07 14:58:09;;;;;;;9.52;4.97;;;30.80;7.50;;;;;;4975673;28;20168;-83
2022/02/07 15:00:53;;;;;;;21.38;11.63;;;30.30;8.20;;;;;;4974898;28;20094;-80
2022/02/07 15:03:24;;;;;;;26.92;12.63;;;27.90;8.80;;;;;;4978566;28;20046;-80
2022/02/07 15:05:57;;;;;;;5.50;2.97;;;28.40;8.60;;;;;;4991095;28;20069;-80
2022/02/07 15:08:26;;;;;;;7.88;2.40;;;28.60;8.10;;;;;;4959069;28;20066;-80
2022/02/07 15:10:52;;;;;;;3.38;1.55;;;26.80;9.10;;;;;;4975168;28;20507;-80
2022/02/07 15:13:19;;;;;;;4.18;1.77;;;24.70;10.60;;;;;;4990552;28;20160;-80
2022/02/07 15:15:45;;;;;;;5.68;1.75;;;23.00;11.60;;;;;;4974789;28;20057;-80
2022/02/07 15:18:11;;;;;;;4.30;1.60;;;21.60;12.40;;;;;;4991481;28;20030;-80
2022/02/07 15:20:43;;;;;;;1.63;0.50;;;20.50;12.90;;;;;;4974836;28;20046;-81
2022/02/07 15:23:10;;;;;;;5.25;1.58;;;19.50;12.40;;;;;;5015408;28;20125;-80
2022/02/07 15:25:39;;;;;;;5.30;2.10;;;19.00;13.40;;;;;;5031533;28;20041;-83
2022/02/07 15:28:09;;;;;;;7.40;1.80;;;18.30;13.70;;;;;;5033723;28;20124;-81
2022/02/07 15:30:40;;;;;;;6.38;1.60;;;17.60;14.00;;;;;;5051543;28;20474;-82
2022/02/07 15:33:42;;;;;;;5.43;1.40;;;17.10;14.30;;;;;;5035339;28;20037;-83
2022/02/07 15:36:09;;;;;;;6.15;2.55;;;16.70;14.80;;;;;;5036744;28;20037;-83
2022/02/07 15:38:36;;;;;;;6.50;2.28;;;16.10;14.90;;;;;;5051512;28;20444;-82
2022/02/07 15:41:09;;;;;;;2.95;1.00;;;15.80;15.90;;;;;;5034309;28;20037;-82
2022/02/07 15:43:36;;;;;;;7.35;2.72;;;15.40;16.20;;;;;;5050467;28;20061;-79
2022/02/07 15:46:09;;;;;;;5.28;1.90;;;15.10;16.70;;;;;;5051026;28;20072;-80